Time;durP1;ratioP1;P1;durP2;ratioP2;P2;SDS_P1;SDS_P2;PMS_P1;PMS_P2;Temp;Humidity;BMP_temperature;BMP_pressure;BME280_temperature;BME280_humidity;BME280_pressure;Samples;Min_cycle;Max_cycle;Signal;HPM_P1;HPM_P2
2023/10/24 00:02:25;;;;;;;4.70;2.50;;;;;;;;;;6255904;22;20073;-74
2023/10/24 00:04:50;;;;;;;5.00;2.10;;;;;;;;;;6285348;22;20248;-72
2023/10/24 00:07:17;;;;;;;5.10;2.13;;;;;;;;;;6283248;22;20004;-73
2023/10/24 00:09:43;;;;;;;6.50;2.50;;;;;;;;;;6281827;22;20213;-72
2023/10/24 00:12:08;;;;;;;6.00;2.23;;;;;;;;;;6282443;22;19999;-73
2023/10/24 00:14:34;;;;;;;6.78;2.30;;;;;;;;;;6253955;22;20230;-72
2023/10/24 00:16:59;;;;;;;4.80;2.20;;;;;;;;;;6255888;22;20103;-74
2023/10/24 00:19:26;;;;;;;4.83;1.90;;;;;;;;;;6282610;22;20500;-75
2023/10/24 00:21:52;;;;;;;5.90;2.20;;;;;;;;;;6256843;22;20233;-73
2023/10/24 00:24:17;;;;;;;5.10;2.03;;;;;;;;;;6254652;22;20019;-76
2023/10/24 00:26:42;;;;;;;4.70;2.00;;;;;;;;;;6284146;22;20241;-76
2023/10/24 00:29:08;;;;;;;4.43;2.00;;;;;;;;;;6282348;22;20580;-72
2023/10/24 00:31:35;;;;;;;5.20;2.10;;;;;;;;;;6256944;22;20127;-73
2023/10/24 00:34:01;;;;;;;4.80;2.20;;;;;;;;;;6255619;22;20010;-73
2023/10/24 00:36:26;;;;;;;7.13;2.10;;;;;;;;;;6259446;22;20003;-74
2023/10/24 00:38:51;;;;;;;5.60;2.05;;;;;;;;;;6286209;22;20209;-73
2023/10/24 00:41:16;;;;;;;4.97;2.13;;;;;;;;;;6257278;22;20643;-74
2023/10/24 00:43:42;;;;;;;7.22;2.30;;;;;;;;;;6258726;22;20249;-74
2023/10/24 00:46:08;;;;;;;6.90;2.27;;;;;;;;;;6254964;22;20313;-72
2023/10/24 00:48:34;;;;;;;5.20;2.08;;;;;;;;;;6258816;22;20310;-73
2023/10/24 00:51:02;;;;;;;5.60;2.22;;;;;;;;;;6255148;22;20003;-75
2023/10/24 00:53:30;;;;;;;5.05;2.03;;;;;;;;;;6255605;22;20071;-74
2023/10/24 00:55:56;;;;;;;5.32;2.13;;;;;;;;;;6253054;22;20087;-74
2023/10/24 00:58:21;;;;;;;5.47;2.10;;;;;;;;;;6283689;22;20004;-72
2023/10/24 01:00:49;;;;;;;5.50;2.30;;;;;;;;;;6280009;22;20541;-71
2023/10/24 01:03:14;;;;;;;5.70;2.30;;;;;;;;;;6256590;22;20080;-74
2023/10/24 01:05:42;;;;;;;6.63;2.50;;;;;;;;;;6280290;22;19999;-73
2023/10/24 01:08:07;;;;;;;5.95;2.25;;;;;;;;;;6256413;22;20011;-72
2023/10/24 01:10:33;;;;;;;4.82;2.72;;;;;;;;;;6280635;22;19999;-71
2023/10/24 01:12:58;;;;;;;5.15;2.05;;;;;;;;;;6251611;22;20033;-71
2023/10/24 01:15:23;;;;;;;6.95;2.33;;;;;;;;;;6282432;22;20169;-71
2023/10/24 01:17:49;;;;;;;4.70;1.98;;;;;;;;;;6253267;22;19995;-72
2023/10/24 01:20:17;;;;;;;8.60;2.50;;;;;;;;;;6282016;22;20467;-73
2023/10/24 01:22:45;;;;;;;4.95;2.10;;;;;;;;;;6254835;22;20145;-73
2023/10/24 01:25:16;;;;;;;5.68;2.50;;;;;;;;;;6254985;22;19999;-74
2023/10/24 01:27:47;;;;;;;6.75;2.45;;;;;;;;;;6254726;22;20086;-72
2023/10/24 01:30:12;;;;;;;5.43;2.30;;;;;;;;;;6254780;22;20726;-74
2023/10/24 01:32:38;;;;;;;6.18;2.90;;;;;;;;;;6283480;22;19996;-71
2023/10/24 01:35:06;;;;;;;8.23;2.67;;;;;;;;;;6253538;22;20000;-72
2023/10/24 01:37:35;;;;;;;5.93;2.10;;;;;;;;;;6255652;22;20033;-70
2023/10/24 01:40:01;;;;;;;6.28;3.25;;;;;;;;;;6254099;22;20010;-73
2023/10/24 01:42:26;;;;;;;5.90;2.60;;;;;;;;;;6282368;22;20283;-70
2023/10/24 01:44:53;;;;;;;5.38;2.40;;;;;;;;;;6280961;22;20732;-71
2023/10/24 01:47:19;;;;;;;6.65;2.78;;;;;;;;;;6253286;22;20006;-73
2023/10/24 01:49:44;;;;;;;8.13;2.63;;;;;;;;;;6254053;22;20003;-73
2023/10/24 01:52:10;;;;;;;4.78;2.50;;;;;;;;;;6253260;22;20699;-70
2023/10/24 01:54:35;;;;;;;5.32;2.53;;;;;;;;;;6255301;22;20007;-72
2023/10/24 01:57:00;;;;;;;5.93;2.70;;;;;;;;;;6280825;22;19995;-72
2023/10/24 01:59:25;;;;;;;5.73;2.40;;;;;;;;;;6285363;22;20225;-70
2023/10/24 02:01:51;;;;;;;7.25;2.50;;;;;;;;;;6252249;22;20225;-71
2023/10/24 02:04:16;;;;;;;6.35;2.38;;;;;;;;;;6282767;22;20854;-70
2023/10/24 02:06:41;;;;;;;7.43;2.77;;;;;;;;;;6253059;22;20094;-69
2023/10/24 02:09:07;;;;;;;5.57;2.83;;;;;;;;;;6284767;22;20206;-71
2023/10/24 02:11:33;;;;;;;5.28;2.60;;;;;;;;;;6251753;22;20009;-70
2023/10/24 02:13:58;;;;;;;7.97;3.13;;;;;;;;;;6281478;22;20015;-70
2023/10/24 02:16:25;;;;;;;7.25;2.88;;;;;;;;;;6283190;22;20031;-70
2023/10/24 02:18:51;;;;;;;7.90;3.17;;;;;;;;;;6252685;22;20000;-71
2023/10/24 02:21:16;;;;;;;7.32;3.22;;;;;;;;;;6282686;22;20070;-69
2023/10/24 02:23:41;;;;;;;6.90;3.20;;;;;;;;;;6248782;22;20011;-70
2023/10/24 02:26:12;;;;;;;5.47;3.17;;;;;;;;;;6282705;22;20070;-71
2023/10/24 02:28:40;;;;;;;6.88;3.38;;;;;;;;;;6280983;22;20206;-71
2023/10/24 02:31:08;;;;;;;7.80;3.70;;;;;;;;;;6283023;22;20020;-71
2023/10/24 02:33:33;;;;;;;6.53;3.83;;;;;;;;;;6254994;22;20007;-70
2023/10/24 02:36:08;;;;;;;8.60;3.90;;;;;;;;;;6255365;22;20880;-70
2023/10/24 02:38:34;;;;;;;6.97;4.10;;;;;;;;;;6255394;22;20228;-71
2023/10/24 02:40:59;;;;;;;8.25;4.00;;;;;;;;;;6280781;22;19996;-69
2023/10/24 02:43:24;;;;;;;8.60;4.45;;;;;;;;;;6256405;22;20675;-70
2023/10/24 02:45:50;;;;;;;8.32;4.53;;;;;;;;;;6250496;22;20571;-68
2023/10/24 02:48:15;;;;;;;8.63;4.20;;;;;;;;;;6255837;22;20060;-68
2023/10/24 02:50:43;;;;;;;9.47;4.70;;;;;;;;;;6252833;22;20221;-67
2023/10/24 02:53:11;;;;;;;8.77;4.95;;;;;;;;;;6256130;22;20842;-67
2023/10/24 02:55:36;;;;;;;7.88;5.00;;;;;;;;;;6255668;22;20007;-67
2023/10/24 02:58:01;;;;;;;7.77;5.50;;;;;;;;;;6254919;22;20003;-67
2023/10/24 03:00:28;;;;;;;10.75;5.68;;;;;;;;;;6285911;22;20206;-68
2023/10/24 03:02:54;;;;;;;8.25;5.00;;;;;;;;;;6280532;22;19991;-68
2023/10/24 03:05:21;;;;;;;9.00;5.10;;;;;;;;;;6256638;22;20003;-68
2023/10/24 03:07:46;;;;;;;17.10;6.35;;;;;;;;;;6253828;22;20217;-68
2023/10/24 03:10:12;;;;;;;10.03;5.87;;;;;;;;;;6285821;22;20418;-68
2023/10/24 03:12:37;;;;;;;9.25;5.82;;;;;;;;;;6252202;22;20225;-67
2023/10/24 03:15:05;;;;;;;8.05;5.70;;;;;;;;;;6282756;22;20002;-68
2023/10/24 03:17:30;;;;;;;10.52;6.07;;;;;;;;;;6256276;22;19999;-68
2023/10/24 03:19:56;;;;;;;11.13;6.50;;;;;;;;;;6256120;22;20472;-68
2023/10/24 03:22:23;;;;;;;9.20;5.90;;;;;;;;;;6255186;22;20230;-68
2023/10/24 03:24:49;;;;;;;10.02;6.10;;;;;;;;;;6254290;22;20237;-68
2023/10/24 03:27:14;;;;;;;10.07;6.70;;;;;;;;;;6285228;22;20606;-67
2023/10/24 03:29:43;;;;;;;8.18;6.05;;;;;;;;;;6254437;22;20006;-69
2023/10/24 03:32:10;;;;;;;9.88;6.35;;;;;;;;;;6284936;22;20006;-69
2023/10/24 03:34:36;;;;;;;9.52;5.95;;;;;;;;;;6253984;22;20772;-69
2023/10/24 03:37:02;;;;;;;10.15;6.60;;;;;;;;;;6256763;22;20023;-70
2023/10/24 03:39:28;;;;;;;9.98;6.43;;;;;;;;;;6255038;22;20046;-70
2023/10/24 03:41:56;;;;;;;10.85;6.28;;;;;;;;;;6255420;22;20026;-69
2023/10/24 03:44:23;;;;;;;9.35;6.28;;;;;;;;;;6256681;22;20027;-69
2023/10/24 03:46:48;;;;;;;10.10;5.88;;;;;;;;;;6254509;22;20409;-69
2023/10/24 03:49:13;;;;;;;8.43;5.10;;;;;;;;;;6255307;22;20006;-69
2023/10/24 03:51:39;;;;;;;7.53;4.97;;;;;;;;;;6256224;22;20928;-69
2023/10/24 03:54:06;;;;;;;8.88;5.20;;;;;;;;;;6283177;22;20231;-68
2023/10/24 03:56:32;;;;;;;8.90;5.40;;;;;;;;;;6283556;22;20042;-68
2023/10/24 03:58:58;;;;;;;9.52;5.65;;;;;;;;;;6281449;22;20369;-68
2023/10/24 04:01:23;;;;;;;7.10;4.80;;;;;;;;;;6281416;22;20504;-69
2023/10/24 04:03:49;;;;;;;6.70;4.53;;;;;;;;;;6283016;22;20003;-69
2023/10/24 04:06:16;;;;;;;7.68;4.60;;;;;;;;;;6283905;22;20003;-69
2023/10/24 04:08:42;;;;;;;9.40;4.85;;;;;;;;;;6254167;22;20006;-69
2023/10/24 04:11:14;;;;;;;7.03;4.60;;;;;;;;;;6254866;22;19999;-69
2023/10/24 04:13:40;;;;;;;8.07;3.90;;;;;;;;;;6255352;22;20007;-70
2023/10/24 04:16:07;;;;;;;8.90;4.35;;;;;;;;;;6255273;22;20438;-69
2023/10/24 04:18:32;;;;;;;7.57;4.53;;;;;;;;;;6284426;22;20006;-70
2023/10/24 04:20:58;;;;;;;7.47;4.13;;;;;;;;;;6253764;22;20090;-71
2023/10/24 04:23:25;;;;;;;7.40;4.40;;;;;;;;;;6256012;22;20334;-71
2023/10/24 04:25:51;;;;;;;7.15;4.30;;;;;;;;;;6252676;22;20003;-71
2023/10/24 04:28:16;;;;;;;7.60;4.17;;;;;;;;;;6254325;22;20090;-69
2023/10/24 04:30:41;;;;;;;6.03;3.80;;;;;;;;;;6282783;22;20220;-71
2023/10/24 04:33:07;;;;;;;6.88;3.92;;;;;;;;;;6281539;22;20221;-71
2023/10/24 04:35:39;;;;;;;6.85;4.35;;;;;;;;;;6256593;22;20053;-73
2023/10/24 04:38:04;;;;;;;8.18;4.30;;;;;;;;;;6254762;22;19999;-71
2023/10/24 04:40:29;;;;;;;7.83;4.10;;;;;;;;;;6255028;22;20007;-70
2023/10/24 04:42:55;;;;;;;7.70;4.13;;;;;;;;;;6251229;22;20214;-71
2023/10/24 04:45:20;;;;;;;5.65;3.90;;;;;;;;;;6283418;22;20340;-70
2023/10/24 04:47:45;;;;;;;8.07;4.55;;;;;;;;;;6250587;22;20034;-71
2023/10/24 04:50:13;;;;;;;7.00;3.67;;;;;;;;;;6281790;22;20070;-67
2023/10/24 04:52:40;;;;;;;6.15;2.80;;;;;;;;;;6254356;22;20221;-67
2023/10/24 04:55:06;;;;;;;6.32;2.78;;;;;;;;;;6278548;22;20484;-66
2023/10/24 04:57:31;;;;;;;5.35;2.42;;;;;;;;;;6254360;22;20021;-67
2023/10/24 04:59:58;;;;;;;4.50;2.28;;;;;;;;;;6276662;22;20189;-71
2023/10/24 05:02:26;;;;;;;5.20;2.42;;;;;;;;;;6278367;22;20022;-73
2023/10/24 05:04:52;;;;;;;6.05;2.78;;;;;;;;;;6252713;22;20008;-74
2023/10/24 05:07:17;;;;;;;4.83;2.20;;;;;;;;;;6280697;22;20022;-71
2023/10/24 05:09:42;;;;;;;5.20;1.93;;;;;;;;;;6281267;22;20248;-72
2023/10/24 05:12:08;;;;;;;7.43;2.27;;;;;;;;;;6280460;22;20214;-74
2023/10/24 05:14:33;;;;;;;4.20;1.92;;;;;;;;;;6253009;22;20694;-67
2023/10/24 05:16:58;;;;;;;3.60;1.30;;;;;;;;;;6278137;22;20014;-67
2023/10/24 05:19:26;;;;;;;3.80;1.47;;;;;;;;;;6283199;22;19991;-67
2023/10/24 05:21:54;;;;;;;4.30;1.73;;;;;;;;;;6253450;22;20336;-65
2023/10/24 05:24:19;;;;;;;5.57;1.38;;;;;;;;;;6254616;22;20007;-69
2023/10/24 05:26:44;;;;;;;4.85;1.30;;;;;;;;;;6279124;22;20006;-71
2023/10/24 05:29:12;;;;;;;4.73;1.40;;;;;;;;;;6254571;22;20749;-73
2023/10/24 05:31:37;;;;;;;4.65;1.30;;;;;;;;;;6252048;22;20221;-70
2023/10/24 05:34:05;;;;;;;3.10;1.00;;;;;;;;;;6277353;22;19999;-75
2023/10/24 05:36:31;;;;;;;3.25;0.90;;;;;;;;;;6273653;22;20468;-72
2023/10/24 05:38:56;;;;;;;2.28;0.80;;;;;;;;;;6252897;22;20042;-71
2023/10/24 05:41:21;;;;;;;1.80;0.70;;;;;;;;;;6278369;22;19999;-71
2023/10/24 05:43:49;;;;;;;1.98;0.73;;;;;;;;;;6278551;22;20702;-75
2023/10/24 05:46:14;;;;;;;2.10;0.80;;;;;;;;;;6280713;22;20019;-75
2023/10/24 05:48:39;;;;;;;3.55;1.00;;;;;;;;;;6252630;22;20092;-74
2023/10/24 05:51:07;;;;;;;2.90;0.90;;;;;;;;;;6281211;22;20053;-74
2023/10/24 05:53:33;;;;;;;3.53;0.90;;;;;;;;;;6282766;22;20035;-71
2023/10/24 05:56:01;;;;;;;2.50;0.93;;;;;;;;;;6254268;22;19999;-70
2023/10/24 05:58:26;;;;;;;4.68;1.30;;;;;;;;;;6255821;22;20308;-69
2023/10/24 06:00:52;;;;;;;3.42;0.90;;;;;;;;;;6254130;22;20118;-70
2023/10/24 06:03:18;;;;;;;5.25;1.40;;;;;;;;;;6253295;22;20015;-68
2023/10/24 06:05:44;;;;;;;5.50;1.50;;;;;;;;;;6280442;22;20003;-68
2023/10/24 06:08:09;;;;;;;3.03;1.00;;;;;;;;;;6255612;22;20010;-66
2023/10/24 06:10:34;;;;;;;3.40;1.67;;;;;;;;;;6281051;22;20014;-67
2023/10/24 06:13:01;;;;;;;3.05;0.90;;;;;;;;;;6255260;22;20657;-67
2023/10/24 06:15:26;;;;;;;4.00;1.15;;;;;;;;;;6283735;22;20002;-69
2023/10/24 06:17:55;;;;;;;5.20;1.70;;;;;;;;;;6255388;22;19999;-70
2023/10/24 06:20:20;;;;;;;6.63;1.77;;;;;;;;;;6255032;22;20229;-67
2023/10/24 06:22:45;;;;;;;4.15;1.30;;;;;;;;;;6284081;22;20033;-63
2023/10/24 06:25:11;;;;;;;3.47;0.97;;;;;;;;;;6255322;22;20871;-67
2023/10/24 06:27:37;;;;;;;3.00;0.90;;;;;;;;;;6257650;22;20221;-66
2023/10/24 06:30:02;;;;;;;2.38;0.80;;;;;;;;;;6255764;22;20006;-68
2023/10/24 06:32:28;;;;;;;2.95;0.90;;;;;;;;;;6256682;22;20376;-66
2023/10/24 06:34:53;;;;;;;2.30;0.85;;;;;;;;;;6283884;22;20142;-68
2023/10/24 06:37:21;;;;;;;4.63;1.27;;;;;;;;;;6257081;22;20096;-67
2023/10/24 06:39:47;;;;;;;4.97;1.00;;;;;;;;;;6254628;22;20222;-66
2023/10/24 06:42:12;;;;;;;3.92;1.23;;;;;;;;;;6257391;22;20078;-70
2023/10/24 06:44:37;;;;;;;4.07;1.10;;;;;;;;;;6282623;22;20090;-71
2023/10/24 06:47:05;;;;;;;4.10;1.30;;;;;;;;;;6285332;22;19999;-71
2023/10/24 06:49:30;;;;;;;4.80;1.30;;;;;;;;;;6253930;22;20226;-70
2023/10/24 06:51:55;;;;;;;2.95;1.00;;;;;;;;;;6283603;22;20737;-69
2023/10/24 06:54:20;;;;;;;2.87;1.17;;;;;;;;;;6283525;22;20100;-68
2023/10/24 06:56:48;;;;;;;9.20;5.60;;;;;;;;;;6283676;22;21019;-69
2023/10/24 06:59:13;;;;;;;5.95;2.35;;;;;;;;;;6253265;22;20269;-69
2023/10/24 07:01:38;;;;;;;5.17;1.60;;;;;;;;;;6247982;22;20343;-72
2023/10/24 07:04:04;;;;;;;5.10;1.70;;;;;;;;;;6277093;22;20302;-73
2023/10/24 07:06:31;;;;;;;4.45;1.52;;;;;;;;;;6249369;22;20451;-74
2023/10/24 07:08:57;;;;;;;4.82;1.33;;;;;;;;;;6250658;22;20007;-76
2023/10/24 07:11:22;;;;;;;5.63;1.60;;;;;;;;;;6251048;22;20007;-72
2023/10/24 07:13:50;;;;;;;5.68;1.75;;;;;;;;;;6280387;22;20001;-72
2023/10/24 07:16:16;;;;;;;7.22;1.48;;;;;;;;;;6249954;22;20006;-74
2023/10/24 07:18:41;;;;;;;4.15;1.55;;;;;;;;;;6279236;22;20046;-77
2023/10/24 07:21:07;;;;;;;4.32;1.38;;;;;;;;;;6252050;22;20729;-76
2023/10/24 07:23:35;;;;;;;3.97;1.50;;;;;;;;;;6249457;22;20003;-74
2023/10/24 07:26:00;;;;;;;4.38;1.65;;;;;;;;;;6252387;22;20088;-78
2023/10/24 07:28:25;;;;;;;4.88;1.50;;;;;;;;;;6279107;22;20022;-78
2023/10/24 07:30:51;;;;;;;4.07;1.60;;;;;;;;;;6250164;22;19999;-75
2023/10/24 07:33:18;;;;;;;4.78;1.90;;;;;;;;;;6247716;22;20484;-75
2023/10/24 07:35:46;;;;;;;5.45;2.30;;;;;;;;;;6278517;22;20071;-79
2023/10/24 07:38:11;;;;;;;4.55;2.03;;;;;;;;;;6249933;22;20011;-82
2023/10/24 07:40:36;;;;;;;5.10;2.22;;;;;;;;;;6276589;22;20003;-81
2023/10/24 07:43:04;;;;;;;5.30;2.10;;;;;;;;;;6277891;22;20003;-81
2023/10/24 07:45:30;;;;;;;5.95;2.03;;;;;;;;;;6247029;22;20355;-81
2023/10/24 07:47:55;;;;;;;4.50;1.90;;;;;;;;;;6251272;22;19998;-79
2023/10/24 07:50:20;;;;;;;6.63;1.97;;;;;;;;;;6243583;22;20257;-80
2023/10/24 07:52:45;;;;;;;6.03;2.00;;;;;;;;;;6277298;22;20335;-79
2023/10/24 07:55:11;;;;;;;4.78;2.00;;;;;;;;;;6249768;22;20250;-80
2023/10/24 07:57:38;;;;;;;4.93;1.63;;;;;;;;;;6250867;22;20430;-77
2023/10/24 08:00:04;;;;;;;5.10;1.42;;;;;;;;;;6250138;22;19995;-73
2023/10/24 08:02:32;;;;;;;5.05;1.40;;;;;;;;;;6247386;22;20643;-71
2023/10/24 08:04:57;;;;;;;5.25;1.85;;;;;;;;;;6249769;22;20014;-76
2023/10/24 08:07:22;;;;;;;5.17;2.50;;;;;;;;;;6245631;22;20162;-76
2023/10/24 08:09:52;;;;;;;5.10;2.72;;;;;;;;;;6278689;22;20716;-74
2023/10/24 08:12:20;;;;;;;5.50;2.40;;;;;;;;;;6277007;22;19995;-77
2023/10/24 08:14:49;;;;;;;5.80;2.53;;;;;;;;;;6278045;22;20003;-80
2023/10/24 08:17:14;;;;;;;6.20;2.80;;;;;;;;;;6277511;22;19995;-77
2023/10/24 08:19:39;;;;;;;6.53;2.67;;;;;;;;;;6276731;22;20469;-74
2023/10/24 08:22:05;;;;;;;5.47;2.37;;;;;;;;;;6275848;22;20213;-79
2023/10/24 08:24:30;;;;;;;6.45;2.30;;;;;;;;;;6275073;22;20241;-78
2023/10/24 08:26:58;;;;;;;4.80;2.17;;;;;;;;;;6248952;22;20031;-78
2023/10/24 08:29:25;;;;;;;5.68;2.30;;;;;;;;;;6248568;22;20436;-79
2023/10/24 08:31:51;;;;;;;5.80;2.13;;;;;;;;;;6250808;22;20002;-81
2023/10/24 08:34:18;;;;;;;4.32;1.80;;;;;;;;;;6249807;22;20396;-75
2023/10/24 08:36:43;;;;;;;5.60;1.90;;;;;;;;;;6278926;22;20048;-77
2023/10/24 08:39:09;;;;;;;3.97;1.48;;;;;;;;;;6277447;22;20343;-74
2023/10/24 08:41:37;;;;;;;5.10;1.83;;;;;;;;;;6278435;22;20688;-79
2023/10/24 08:44:07;;;;;;;4.25;1.60;;;;;;;;;;6278404;22;20568;-74
2023/10/24 08:46:33;;;;;;;5.00;1.50;;;;;;;;;;6250352;22;19999;-72
2023/10/24 08:48:59;;;;;;;4.43;1.30;;;;;;;;;;6278550;22;20006;-76
2023/10/24 08:51:24;;;;;;;3.83;1.30;;;;;;;;;;6277004;22;20010;-75
2023/10/24 08:53:49;;;;;;;4.57;1.17;;;;;;;;;;6251891;22;20010;-77
2023/10/24 08:56:15;;;;;;;3.08;0.90;;;;;;;;;;6247155;22;20230;-74
2023/10/24 08:58:43;;;;;;;2.45;0.80;;;;;;;;;;6278366;22;20187;-73
2023/10/24 09:01:09;;;;;;;2.03;0.77;;;;;;;;;;6275087;22;20022;-75
2023/10/24 09:03:35;;;;;;;2.63;0.68;;;;;;;;;;6277573;22;20368;-78
2023/10/24 09:06:01;;;;;;;2.60;0.80;;;;;;;;;;6276893;22;20026;-78
2023/10/24 09:08:28;;;;;;;3.75;1.17;;;;;;;;;;6276292;22;20447;-73
2023/10/24 09:10:55;;;;;;;4.03;0.82;;;;;;;;;;6277438;22;19998;-78
2023/10/24 09:13:20;;;;;;;2.92;0.80;;;;;;;;;;6247269;22;20463;-75
2023/10/24 09:16:03;;;;;;;1.97;0.60;;;;;;;;;;6276539;22;19995;-73
2023/10/24 09:18:29;;;;;;;2.33;0.60;;;;;;;;;;6275289;22;20275;-78
2023/10/24 09:20:55;;;;;;;2.33;0.52;;;;;;;;;;6251116;22;20721;-74
2023/10/24 09:23:20;;;;;;;3.30;0.60;;;;;;;;;;6273941;22;20003;-72
2023/10/24 09:25:50;;;;;;;4.07;0.90;;;;;;;;;;6249355;22;20848;-75
2023/10/24 09:28:15;;;;;;;;;;;;;;;;;;6248506;22;20371;-73
2023/10/24 09:30:41;;;;;;;2.83;0.75;;;;;;;;;;6275212;22;20614;-73
2023/10/24 09:33:06;;;;;;;3.80;1.20;;;;;;;;;;6277052;22;20011;-71
2023/10/24 09:35:35;;;;;;;3.80;1.60;;;;;;;;;;6247051;22;20034;-73
2023/10/24 09:38:00;;;;;;;4.38;1.50;;;;;;;;;;6249236;22;20271;-72
2023/10/24 09:40:36;;;;;;;4.00;1.42;;;;;;;;;;6248420;22;20007;-70
2023/10/24 09:43:04;;;;;;;3.47;1.15;;;;;;;;;;6252191;22;20006;-72
2023/10/24 09:45:31;;;;;;;4.75;1.38;;;;;;;;;;6244148;22;20026;-71
2023/10/24 09:47:57;;;;;;;3.38;1.30;;;;;;;;;;6248877;22;20004;-70
2023/10/24 09:50:23;;;;;;;4.15;1.30;;;;;;;;;;6245399;22;20028;-72
2023/10/24 09:52:49;;;;;;;3.17;1.00;;;;;;;;;;6247597;22;20409;-73
2023/10/24 09:55:15;;;;;;;3.67;1.00;;;;;;;;;;6244402;22;20003;-71
2023/10/24 09:57:44;;;;;;;2.38;0.50;;;;;;;;;;6245320;22;20030;-76
2023/10/24 10:00:11;;;;;;;2.63;0.98;;;;;;;;;;6244774;22;20624;-74
2023/10/24 10:02:40;;;;;;;4.30;1.40;;;;;;;;;;6247005;22;20058;-74
2023/10/24 10:05:05;;;;;;;4.80;1.95;;;;;;;;;;6241993;22;20467;-73
2023/10/24 10:07:31;;;;;;;3.85;1.30;;;;;;;;;;6243732;22;20007;-71
2023/10/24 10:09:57;;;;;;;4.78;1.52;;;;;;;;;;6247461;22;20684;-71
2023/10/24 10:12:24;;;;;;;3.85;1.40;;;;;;;;;;6244795;22;20421;-73
2023/10/24 10:15:03;;;;;;;3.92;1.05;;;;;;;;;;6249048;22;20083;-73
2023/10/24 10:17:28;;;;;;;2.67;1.00;;;;;;;;;;6244759;22;20069;-72
2023/10/24 10:20:12;;;;;;;3.17;1.13;;;;;;;;;;6244336;22;20085;-72
2023/10/24 10:22:44;;;;;;;2.95;0.90;;;;;;;;;;6246252;22;19999;-70
2023/10/24 10:25:09;;;;;;;3.45;1.20;;;;;;;;;;6246592;22;20012;-71
2023/10/24 10:28:03;;;;;;;4.25;1.15;;;;;;;;;;6244820;22;20010;-71
2023/10/24 10:30:31;;;;;;;1.73;0.70;;;;;;;;;;6236963;22;20065;-71
2023/10/24 10:32:57;;;;;;;4.30;1.27;;;;;;;;;;6246010;22;20011;-71
2023/10/24 10:35:42;;;;;;;4.03;1.20;;;;;;;;;;6244061;22;20066;-72
2023/10/24 10:38:07;;;;;;;3.47;0.85;;;;;;;;;;6246586;22;20214;-72
2023/10/24 10:40:33;;;;;;;3.33;1.07;;;;;;;;;;6242799;22;20014;-71
2023/10/24 10:43:00;;;;;;;4.38;1.48;;;;;;;;;;6247373;22;20234;-71
2023/10/24 10:45:30;;;;;;;4.50;1.85;;;;;;;;;;6261308;22;20170;-71
2023/10/24 10:47:58;;;;;;;3.47;1.35;;;;;;;;;;6250653;22;20169;-71
2023/10/24 10:50:28;;;;;;;6.10;2.95;;;;;;;;;;6249567;22;20546;-72
2023/10/24 10:53:00;;;;;;;5.25;2.25;;;;;;;;;;6248544;22;20023;-72
2023/10/24 10:55:46;;;;;;;3.60;1.40;;;;;;;;;;6249331;22;19999;-70
2023/10/24 10:58:21;;;;;;;4.38;1.60;;;;;;;;;;6246491;22;20029;-71
2023/10/24 11:01:00;;;;;;;3.30;1.10;;;;;;;;;;6276370;22;19999;-70
2023/10/24 11:03:25;;;;;;;3.30;1.00;;;;;;;;;;6248179;22;20370;-71
2023/10/24 11:05:51;;;;;;;4.20;1.80;;;;;;;;;;6275914;22;20499;-71
2023/10/24 11:08:20;;;;;;;4.53;1.80;;;;;;;;;;6278075;22;19995;-70
2023/10/24 11:10:51;;;;;;;4.65;2.53;;;;;;;;;;6275855;22;20027;-70
2023/10/24 11:13:38;;;;;;;4.90;2.40;;;;;;;;;;6278824;22;20029;-70
2023/10/24 11:16:10;;;;;;;4.32;2.17;;;;;;;;;;6247674;22;19999;-70
2023/10/24 11:18:36;;;;;;;3.85;1.27;;;;;;;;;;6251169;22;20003;-70
2023/10/24 11:21:03;;;;;;;3.95;1.70;;;;;;;;;;6249493;22;20502;-70
2023/10/24 11:23:28;;;;;;;4.43;1.60;;;;;;;;;;6249987;22;20883;-70
2023/10/24 11:25:55;;;;;;;3.78;1.40;;;;;;;;;;6276302;22;20006;-70
2023/10/24 11:28:20;;;;;;;3.72;1.42;;;;;;;;;;6276724;22;20611;-70
2023/10/24 11:30:46;;;;;;;5.55;1.42;;;;;;;;;;6249861;22;20577;-70
2023/10/24 11:33:12;;;;;;;4.03;1.00;;;;;;;;;;6275861;22;20019;-70
2023/10/24 11:35:37;;;;;;;2.95;0.90;;;;;;;;;;6250196;22;20587;-70
2023/10/24 11:38:02;;;;;;;3.10;1.08;;;;;;;;;;6275713;22;20124;-70
2023/10/24 11:40:28;;;;;;;4.45;1.30;;;;;;;;;;6250581;22;20005;-70
2023/10/24 11:43:02;;;;;;;3.00;1.02;;;;;;;;;;6255126;22;20010;-69
2023/10/24 11:45:27;;;;;;;3.90;1.27;;;;;;;;;;6281290;22;20098;-70
2023/10/24 11:47:55;;;;;;;3.67;1.40;;;;;;;;;;6283275;22;20075;-71
2023/10/24 11:50:35;;;;;;;3.92;1.52;;;;;;;;;;6283454;22;20237;-70
2023/10/24 11:53:00;;;;;;;;;;;;;;;;;;6284065;22;19995;-70
2023/10/24 11:55:25;;;;;;;3.13;1.10;;;;;;;;;;6283564;22;20011;-70
2023/10/24 11:57:55;;;;;;;2.65;1.00;;;;;;;;;;6253393;22;20037;-71
2023/10/24 12:00:20;;;;;;;2.85;0.98;;;;;;;;;;6257222;22;20000;-70
2023/10/24 12:02:46;;;;;;;3.13;0.90;;;;;;;;;;6280257;22;20006;-72
2023/10/24 12:05:11;;;;;;;2.93;1.00;;;;;;;;;;6255994;22;20675;-70
2023/10/24 12:07:36;;;;;;;2.40;0.80;;;;;;;;;;6280935;22;20214;-71
2023/10/24 12:10:11;;;;;;;2.30;0.80;;;;;;;;;;6256972;22;20484;-71
2023/10/24 12:12:36;;;;;;;2.67;0.70;;;;;;;;;;6255273;22;20042;-71
2023/10/24 12:15:04;;;;;;;2.53;0.80;;;;;;;;;;6253681;22;20003;-69
2023/10/24 12:17:33;;;;;;;2.75;0.90;;;;;;;;;;6281217;22;20070;-71
2023/10/24 12:20:00;;;;;;;2.88;0.88;;;;;;;;;;6281284;22;20138;-69
2023/10/24 12:22:25;;;;;;;3.25;0.77;;;;;;;;;;6257087;22;20035;-69
2023/10/24 12:24:50;;;;;;;1.80;0.70;;;;;;;;;;6282693;22;20031;-67
2023/10/24 12:27:16;;;;;;;2.53;0.80;;;;;;;;;;6255707;22;21153;-71
2023/10/24 12:29:41;;;;;;;3.10;0.87;;;;;;;;;;6253169;22;20503;-71
2023/10/24 12:32:06;;;;;;;3.07;1.00;;;;;;;;;;6283547;22;20213;-71
2023/10/24 12:34:31;;;;;;;2.13;0.80;;;;;;;;;;6255636;22;20752;-70
2023/10/24 12:37:02;;;;;;;3.37;0.90;;;;;;;;;;6282142;22;20019;-69
2023/10/24 12:39:27;;;;;;;2.83;1.00;;;;;;;;;;6282340;22;20218;-71
2023/10/24 12:41:52;;;;;;;2.75;0.90;;;;;;;;;;6253989;22;20010;-70
2023/10/24 12:44:17;;;;;;;3.90;1.00;;;;;;;;;;6281568;22;20007;-71
2023/10/24 12:46:43;;;;;;;3.17;0.90;;;;;;;;;;6254017;22;20230;-71
2023/10/24 12:49:08;;;;;;;3.08;0.98;;;;;;;;;;6253792;22;20733;-71
2023/10/24 12:51:33;;;;;;;3.47;1.20;;;;;;;;;;6282588;22;20772;-70
2023/10/24 12:53:59;;;;;;;2.60;0.80;;;;;;;;;;6284055;22;20279;-70
2023/10/24 12:56:24;;;;;;;3.30;1.00;;;;;;;;;;6250182;22;20078;-70
2023/10/24 12:58:49;;;;;;;2.90;0.93;;;;;;;;;;6283284;22;20003;-70
2023/10/24 13:01:17;;;;;;;3.78;1.10;;;;;;;;;;6254735;22;20417;-70
2023/10/24 13:03:42;;;;;;;3.53;1.10;;;;;;;;;;6284678;22;20498;-70
2023/10/24 13:06:08;;;;;;;3.53;1.00;;;;;;;;;;6279559;22;20090;-71
2023/10/24 13:08:33;;;;;;;3.13;0.95;;;;;;;;;;6281758;22;20006;-69
2023/10/24 13:11:02;;;;;;;3.97;0.90;;;;;;;;;;6282819;22;20482;-69
2023/10/24 13:13:27;;;;;;;3.30;1.00;;;;;;;;;;6280698;22;20113;-70
2023/10/24 13:15:52;;;;;;;2.10;0.73;;;;;;;;;;6282907;22;20655;-68
2023/10/24 13:18:18;;;;;;;4.22;1.25;;;;;;;;;;6279783;22;20232;-69
2023/10/24 13:20:43;;;;;;;2.77;0.90;;;;;;;;;;6281918;22;20003;-70
2023/10/24 13:23:08;;;;;;;3.20;1.10;;;;;;;;;;6254271;22;20247;-69
2023/10/24 13:25:34;;;;;;;2.17;0.90;;;;;;;;;;6282596;22;20275;-69
2023/10/24 13:28:00;;;;;;;2.88;0.90;;;;;;;;;;6253506;22;20306;-69
2023/10/24 13:30:25;;;;;;;3.00;0.93;;;;;;;;;;6255145;22;20262;-70
2023/10/24 13:32:50;;;;;;;3.03;1.10;;;;;;;;;;6254057;22;20221;-69
2023/10/24 13:35:16;;;;;;;3.20;1.10;;;;;;;;;;6281032;22;20210;-69
2023/10/24 13:37:41;;;;;;;3.25;1.10;;;;;;;;;;6283177;22;20702;-69
2023/10/24 13:40:08;;;;;;;2.27;0.70;;;;;;;;;;6279354;22;20003;-69
2023/10/24 13:42:36;;;;;;;2.22;0.80;;;;;;;;;;6282171;22;20352;-70
2023/10/24 13:45:02;;;;;;;2.15;0.73;;;;;;;;;;6254758;22;20047;-70
2023/10/24 13:47:27;;;;;;;3.05;0.80;;;;;;;;;;6281400;22;20026;-70
2023/10/24 13:49:57;;;;;;;3.07;0.90;;;;;;;;;;6256514;22;20106;-70
2023/10/24 13:52:30;;;;;;;2.88;0.82;;;;;;;;;;6252597;22;20303;-70
2023/10/24 13:54:55;;;;;;;3.00;0.90;;;;;;;;;;6283096;22;20014;-70
2023/10/24 13:57:23;;;;;;;2.60;0.90;;;;;;;;;;6252996;22;20027;-70
2023/10/24 13:59:48;;;;;;;1.77;0.75;;;;;;;;;;6255507;22;20622;-70
2023/10/24 14:02:14;;;;;;;2.87;1.00;;;;;;;;;;6280296;22;20769;-68
2023/10/24 14:04:39;;;;;;;2.58;0.80;;;;;;;;;;6282180;22;20237;-70
2023/10/24 14:07:05;;;;;;;2.20;0.70;;;;;;;;;;6252599;22;20518;-70
2023/10/24 14:09:30;;;;;;;3.17;0.90;;;;;;;;;;6252226;22;20249;-69
2023/10/24 14:11:58;;;;;;;3.43;1.10;;;;;;;;;;6253056;22;20061;-70
2023/10/24 14:14:26;;;;;;;2.05;0.70;;;;;;;;;;6279629;22;20575;-69
2023/10/24 14:16:51;;;;;;;2.40;0.98;;;;;;;;;;6283313;22;19995;-70
2023/10/24 14:19:16;;;;;;;2.00;0.70;;;;;;;;;;6252560;22;20014;-69
2023/10/24 14:21:44;;;;;;;1.80;0.70;;;;;;;;;;6283396;22;20002;-69
2023/10/24 14:24:09;;;;;;;2.42;0.60;;;;;;;;;;6252287;22;20289;-70
2023/10/24 14:26:35;;;;;;;2.40;0.75;;;;;;;;;;6284071;22;20061;-69
2023/10/24 14:29:02;;;;;;;2.17;0.73;;;;;;;;;;6283264;22;20520;-70
2023/10/24 14:31:30;;;;;;;3.20;1.00;;;;;;;;;;6282550;22;20587;-69
2023/10/24 14:33:56;;;;;;;3.85;1.35;;;;;;;;;;6283708;22;20086;-69
2023/10/24 14:36:21;;;;;;;2.42;0.70;;;;;;;;;;6254992;22;20052;-70
2023/10/24 14:38:47;;;;;;;3.85;0.93;;;;;;;;;;6255388;22;19999;-71
2023/10/24 14:41:12;;;;;;;3.23;1.10;;;;;;;;;;6256810;22;20714;-70